Terminal Aerodrome Forecast
Issued by NWS

Home | Current Version | Previous Version | Text Only | Print | Product List | Glossary On
Versions: 1 2 3 4 5 6 7 8 9 10 11 12 13 14 15
117
FTUS45 KABQ 291142
TAFFMN
TAF
KFMN 291142Z 2912/3012 08006KT P6SM SCT150
     FM292000 29014KT P6SM FEW120
     FM300200 11008KT P6SM SCT150=

USA.gov is the U.S. government's official web portal to all federal, state and local government web resources and services.